Time;durP1;ratioP1;P1;durP2;ratioP2;P2;SDS_P1;SDS_P2;PMS_P1;PMS_P2;Temp;Humidity;BMP_temperature;BMP_pressure;BME280_temperature;BME280_humidity;BME280_pressure;Samples;Min_cycle;Max_cycle;Signal;HPM_P1;HPM_P2
2022/04/01 00:01:45;;;;;;;;;;;2.30;99.90;;;;;;4967166;28;19933;-80
2022/04/01 00:04:13;;;;;;;;;;;2.30;99.90;;;;;;4967841;28;20379;-82
2022/04/01 00:06:41;;;;;;;;;;;2.40;99.90;;;;;;4985572;28;19926;-81
2022/04/01 00:09:08;;;;;;;;;;;2.40;99.90;;;;;;4969482;28;19957;-79
2022/04/01 00:11:36;;;;;;;;;;;2.50;99.90;;;;;;4952238;28;19936;-83
2022/04/01 00:14:04;;;;;;;;;;;2.60;99.90;;;;;;4953699;28;19927;-84
2022/04/01 00:16:32;;;;;;;;;;;2.60;99.90;;;;;;4987296;28;19926;-81
2022/04/01 00:19:00;;;;;;;;;;;2.60;99.90;;;;;;4987525;28;20003;-84
2022/04/01 00:21:28;;;;;;;;;;;2.60;99.90;;;;;;4987486;28;19930;-86
2022/04/01 00:23:57;;;;;;;;;;;2.50;99.90;;;;;;4987516;28;19926;-80
2022/04/01 00:26:26;;;;;;;;;;;2.70;99.90;;;;;;4960266;28;19934;-81
2022/04/01 00:28:56;;;;;;;;;;;2.40;99.90;;;;;;4968713;28;19937;-80
2022/04/01 00:31:24;;;;;;;;;;;0.80;99.90;;;;;;4968937;28;19930;-81
2022/04/01 00:34:15;;;;;;;;;;;2.30;99.90;;;;;;4969752;28;20489;-80
2022/04/01 00:36:41;;;;;;;;;;;2.30;99.90;;;;;;4968163;28;19926;-79
2022/04/01 00:39:10;;;;;;;;;;;2.30;99.90;;;;;;4969554;28;19941;-80
2022/04/01 00:41:38;;;;;;;;;;;2.20;99.90;;;;;;4967837;28;19930;-81
2022/04/01 00:44:25;;;;;;;;;;;3.00;99.90;;;;;;4951796;28;20117;-81
2022/04/01 00:47:02;;;;;;;;;;;2.10;99.90;;;;;;4966971;28;19930;-80
2022/04/01 00:49:30;;;;;;;;;;;2.20;99.90;;;;;;4952682;28;19933;-81
2022/04/01 00:52:00;;;;;;;;;;;2.10;99.90;;;;;;4972249;28;19944;-83
2022/04/01 00:54:28;;;;;;;;;;;2.10;99.90;;;;;;4985388;28;19930;-80
2022/04/01 00:56:55;;;;;;;;;;;2.10;99.90;;;;;;4968310;28;19926;-79
2022/04/01 00:59:25;;;;;;;;;;;2.10;99.90;;;;;;4969173;28;19937;-84
2022/04/01 01:01:53;;;;;;;;;;;2.20;99.90;;;;;;4986119;28;19930;-81
2022/04/01 01:04:21;;;;;;;;;;;2.80;99.90;;;;;;4986609;28;19929;-84
2022/04/01 01:06:50;;;;;;;;;;;2.30;99.90;;;;;;4970655;28;19930;-78
2022/04/01 01:09:18;;;;;;;;;;;2.20;99.90;;;;;;4986510;28;20118;-80
2022/04/01 01:11:47;;;;;;;;;;;2.20;99.90;;;;;;4984017;28;19937;-82
2022/04/01 01:14:16;;;;;;;;;;;2.20;99.90;;;;;;4985286;28;19927;-82
2022/04/01 01:16:47;;;;;;;;;;;2.20;99.90;;;;;;4981693;28;19925;-80
2022/04/01 01:19:18;;;;;;;;;;;2.10;99.90;;;;;;4972250;28;19933;-81
2022/04/01 01:21:49;;;;;;;;;;;2.10;99.90;;;;;;5007654;28;19926;-84
2022/04/01 01:24:17;;;;;;;;;;;2.20;99.90;;;;;;5007212;28;19936;-82
2022/04/01 01:26:52;;;;;;;;;;;2.00;99.90;;;;;;4969839;28;19930;-80
2022/04/01 01:29:27;;;;;;;;;;;2.10;99.90;;;;;;4961965;28;19930;-86
2022/04/01 01:31:56;;;;;;;;;;;2.00;99.90;;;;;;4989339;28;20179;-82
2022/04/01 01:34:24;;;;;;;;;;;1.90;99.90;;;;;;5004214;28;19926;-81
2022/04/01 01:36:52;;;;;;;;;;;2.00;99.90;;;;;;4986899;28;20495;-82
2022/04/01 01:39:20;;;;;;;;;;;0.40;99.90;;;;;;4986281;28;19941;-83
2022/04/01 01:41:53;;;;;;;;;;;2.40;99.90;;;;;;4981960;28;19937;-80
2022/04/01 01:44:23;;;;;;;;;;;2.10;99.90;;;;;;4963460;29;19931;-80
2022/04/01 01:46:51;;;;;;;;;;;1.90;99.90;;;;;;4937977;28;19933;-79
2022/04/01 01:49:22;;;;;;;;;;;1.90;99.90;;;;;;4968868;28;19926;-81
2022/04/01 01:54:44;;;;;;;;;;;1.90;99.90;;;;;;4954124;28;19926;-80
2022/04/01 01:57:15;;;;;;;;;;;1.90;99.90;;;;;;4966393;28;19937;-80
2022/04/01 01:59:44;;;;;;;;;;;2.00;99.90;;;;;;4950881;29;19927;-79
2022/04/01 02:02:12;;;;;;;;;;;1.90;99.90;;;;;;4952172;29;19931;-81
2022/04/01 02:04:41;;;;;;;;;;;0.50;99.90;;;;;;4966576;28;19926;-80
2022/04/01 02:07:10;;;;;;;;;;;1.90;99.90;;;;;;4963586;28;19933;-81
2022/04/01 02:09:40;;;;;;;;;;;1.80;99.90;;;;;;4969569;28;19926;-84
2022/04/01 02:12:09;;;;;;;;;;;1.90;99.90;;;;;;4985790;28;19930;-81
2022/04/01 02:14:36;;;;;;;;;;;1.80;99.90;;;;;;4975901;28;20298;-81
2022/04/01 02:17:04;;;;;;;;;;;1.80;99.90;;;;;;4986882;28;19926;-78
2022/04/01 02:19:32;;;;;;;;;;;1.90;99.90;;;;;;4988131;28;20394;-81
2022/04/01 02:22:02;;;;;;;;;;;1.80;99.90;;;;;;4972043;28;20413;-81
2022/04/01 02:24:32;;;;;;;;;;;2.00;99.90;;;;;;4988680;28;19930;-80
2022/04/01 02:27:00;;;;;;;;;;;1.80;99.90;;;;;;4988312;28;19925;-81
2022/04/01 02:29:29;;;;;;;;;;;1.80;99.90;;;;;;5005825;28;19930;-80
2022/04/01 02:32:16;;;;;;;;;;;1.70;99.90;;;;;;4987133;28;19926;-82
2022/04/01 02:34:59;;;;;;;;;;;0.60;99.90;;;;;;4973038;28;19968;-80
2022/04/01 02:37:28;;;;;;;;;;;1.90;99.90;;;;;;4970180;28;19926;-81
2022/04/01 02:40:01;;;;;;;;;;;1.80;99.90;;;;;;4990233;28;19926;-80
2022/04/01 02:42:31;;;;;;;;;;;1.90;99.90;;;;;;5003263;28;19926;-81
2022/04/01 02:44:59;;;;;;;;;;;1.80;99.90;;;;;;4984197;28;19930;-81
2022/04/01 02:47:28;;;;;;;;;;;0.30;99.90;;;;;;4982971;28;19930;-81
2022/04/01 02:49:56;;;;;;;;;;;1.80;99.90;;;;;;4990525;28;19930;-79
2022/04/01 02:52:26;;;;;;;;;;;1.80;99.90;;;;;;5023508;28;19925;-84
2022/04/01 02:54:55;;;;;;;;;;;1.80;99.90;;;;;;5008818;28;19940;-81
2022/04/01 02:57:24;;;;;;;;;;;1.80;99.90;;;;;;4973829;28;19926;-82
2022/04/01 02:59:52;;;;;;;;;;;1.80;99.90;;;;;;5005545;28;19936;-82
2022/04/01 03:02:20;;;;;;;;;;;1.80;99.90;;;;;;4988775;28;19926;-84
2022/04/01 03:04:48;;;;;;;;;;;1.90;99.90;;;;;;4987874;28;19940;-84
2022/04/01 03:07:16;;;;;;;;;;;1.80;99.90;;;;;;4988068;28;20025;-86
2022/04/01 03:09:44;;;;;;;;;;;1.90;99.90;;;;;;4987743;28;19932;-82
2022/04/01 03:12:17;;;;;;;;;;;1.70;99.90;;;;;;4988534;28;19929;-82
2022/04/01 03:14:54;;;;;;;;;;;1.70;99.90;;;;;;5006538;28;20458;-81
2022/04/01 03:17:40;;;;;;;;;;;1.70;99.90;;;;;;5005273;28;19926;-81
2022/04/01 03:20:17;;;;;;;;;;;1.70;99.90;;;;;;4989577;28;19926;-85
2022/04/01 03:22:50;;;;;;;;;;;1.70;99.90;;;;;;4986579;28;19937;-87
2022/04/01 03:25:22;;;;;;;;;;;1.70;99.90;;;;;;4988377;28;19925;-81
2022/04/01 03:28:14;;;;;;;;;;;1.60;99.90;;;;;;4971632;28;19926;-79
2022/04/01 03:30:50;;;;;;;;;;;1.80;99.90;;;;;;4972597;28;19926;-82
2022/04/01 03:33:25;;;;;;;;;;;1.70;99.90;;;;;;4988870;28;19926;-82
2022/04/01 03:35:54;;;;;;;;;;;1.70;99.90;;;;;;4988352;28;19937;-79
2022/04/01 03:38:26;;;;;;;;;;;1.80;99.90;;;;;;4990777;28;19930;-83
2022/04/01 03:40:54;;;;;;;;;;;1.70;99.90;;;;;;4982378;28;19925;-82
2022/04/01 03:43:24;;;;;;;;;;;1.60;99.90;;;;;;5009820;28;19936;-80
2022/04/01 03:45:58;;;;;;;;;;;1.90;99.90;;;;;;4993783;28;20192;-81
2022/04/01 03:48:31;;;;;;;;;;;1.60;99.90;;;;;;4991028;28;19930;-79
2022/04/01 03:51:00;;;;;;;;;;;1.70;99.90;;;;;;4974670;28;19948;-79
2022/04/01 03:53:33;;;;;;;;;;;1.60;99.90;;;;;;4990843;28;20031;-82
2022/04/01 03:56:07;;;;;;;;;;;1.90;99.90;;;;;;4975454;28;19933;-80
2022/04/01 03:58:54;;;;;;;;;;;1.70;99.90;;;;;;5009917;28;19932;-80
2022/04/01 04:01:28;;;;;;;;;;;1.80;99.90;;;;;;4976899;28;19926;-79
2022/04/01 04:03:56;;;;;;;;;;;1.40;99.90;;;;;;4992647;28;19925;-81
2022/04/01 04:06:27;;;;;;;;;;;1.60;99.90;;;;;;4993077;28;19933;-84
2022/04/01 04:08:56;;;;;;;;;;;1.70;99.90;;;;;;5009855;28;19925;-80
2022/04/01 04:11:25;;;;;;;;;;;1.60;99.90;;;;;;4991681;28;19926;-82
2022/04/01 04:14:04;;;;;;;;;;;1.70;99.90;;;;;;4965194;28;19933;-79
2022/04/01 04:16:34;;;;;;;;;;;1.70;99.90;;;;;;4991741;28;19934;-80
2022/04/01 04:19:07;;;;;;;;;;;1.80;99.90;;;;;;4993265;28;19941;-84
2022/04/01 04:22:03;;;;;;;;;;;1.70;99.90;;;;;;5009602;28;19926;-80
2022/04/01 04:25:10;;;;;;;;;;;1.60;99.90;;;;;;4974485;28;19925;-84
2022/04/01 04:27:45;;;;;;;;;;;1.60;99.90;;;;;;4984198;28;19937;-79
2022/04/01 04:30:15;;;;;;;;;;;1.70;99.90;;;;;;4954502;28;20292;-81
2022/04/01 04:33:02;;;;;;;;;;;1.80;99.90;;;;;;4988626;28;19926;-79
2022/04/01 04:35:33;;;;;;;;;;;1.70;99.90;;;;;;4972507;28;19927;-80
2022/04/01 04:38:02;;;;;;;;;;;1.80;99.90;;;;;;4989566;28;19933;-78
2022/04/01 04:40:30;;;;;;;;;;;1.70;99.90;;;;;;4991134;28;19930;-79
2022/04/01 04:43:12;;;;;;;;;;;1.10;99.90;;;;;;4988637;28;19930;-81
2022/04/01 04:45:41;;;;;;;;;;;1.70;99.90;;;;;;4986702;28;19947;-80
2022/04/01 04:48:13;;;;;;;;;;;1.60;99.90;;;;;;4972890;28;19932;-79
2022/04/01 04:50:52;;;;;;;;;;;1.70;99.90;;;;;;5027987;28;19929;-79
2022/04/01 04:53:20;;;;;;;;;;;1.80;99.90;;;;;;4977801;28;19925;-80
2022/04/01 04:55:50;;;;;;;;;;;1.80;99.90;;;;;;4985518;28;19937;-79
2022/04/01 04:58:29;;;;;;;;;;;1.70;99.90;;;;;;4973623;28;19925;-81
2022/04/01 05:01:04;;;;;;;;;;;1.80;99.90;;;;;;4988323;28;19930;-80
2022/04/01 05:03:45;;;;;;;;;;;1.60;99.90;;;;;;4990839;28;19941;-79
2022/04/01 05:06:17;;;;;;;;;;;1.70;99.90;;;;;;5006155;28;20650;-81
2022/04/01 05:09:18;;;;;;;;;;;1.70;99.90;;;;;;4997833;28;19980;-79
2022/04/01 05:12:16;;;;;;;;;;;1.80;99.90;;;;;;5005961;28;19925;-83
2022/04/01 05:15:09;;;;;;;;;;;1.60;99.90;;;;;;4975418;28;20299;-82
2022/04/01 05:17:52;;;;;;;;;;;1.60;99.90;;;;;;4989825;28;19936;-80
2022/04/01 05:20:23;;;;;;;;;;;1.90;99.90;;;;;;4989459;28;19926;-83
2022/04/01 05:23:11;;;;;;;;;;;1.60;99.90;;;;;;5002344;28;19933;-83
2022/04/01 05:25:44;;;;;;;;;;;1.80;99.90;;;;;;5023543;28;19929;-80
2022/04/01 05:28:40;;;;;;;;;;;2.20;99.90;;;;;;4988233;28;19934;-84
2022/04/01 05:31:37;;;;;;;;;;;1.80;99.90;;;;;;4968848;28;19937;-82
2022/04/01 05:34:18;;;;;;;;;;;1.90;99.90;;;;;;4987026;28;19933;-80
2022/04/01 05:36:49;;;;;;;;;;;1.80;99.90;;;;;;4969257;28;19930;-80
2022/04/01 05:39:17;;;;;;;;;;;1.80;99.90;;;;;;4985829;28;20394;-79
2022/04/01 05:41:51;;;;;;;;;;;1.50;99.90;;;;;;4990138;28;19933;-80
2022/04/01 05:44:24;;;;;;;;;;;1.80;99.90;;;;;;4988610;28;19936;-82
2022/04/01 05:46:53;;;;;;;;;;;1.50;99.90;;;;;;4989985;28;19929;-81
2022/04/01 05:49:25;;;;;;;;;;;1.80;99.90;;;;;;5007764;28;19936;-80
2022/04/01 05:51:55;;;;;;;;;;;1.80;99.90;;;;;;4971500;28;19932;-80
2022/04/01 05:54:26;;;;;;;;;;;1.80;99.90;;;;;;4970756;28;19925;-80
2022/04/01 05:56:56;;;;;;;;;;;2.00;99.90;;;;;;4999283;28;19926;-80
2022/04/01 05:59:23;;;;;;;;;;;1.80;99.90;;;;;;4987919;28;19926;-80
2022/04/01 06:02:05;;;;;;;;;;;1.10;99.90;;;;;;4991594;28;19932;-79
2022/04/01 06:07:51;;;;;;;;;;;1.80;99.90;;;;;;4987456;28;19933;-82
2022/04/01 06:10:45;;;;;;;;;;;1.80;99.90;;;;;;5005101;28;19929;-81
2022/04/01 06:13:51;;;;;;;;;;;1.80;99.90;;;;;;4974023;28;19929;-79
2022/04/01 06:17:02;;;;;;;;;;;1.90;99.90;;;;;;4974639;28;19927;-78
2022/04/01 06:19:39;;;;;;;;;;;1.90;99.90;;;;;;4982801;28;19946;-81
2022/04/01 06:22:20;;;;;;;;;;;2.00;99.90;;;;;;4986541;28;19926;-86
2022/04/01 06:24:53;;;;;;;;;;;2.00;99.90;;;;;;4983551;28;19926;-80
2022/04/01 06:27:27;;;;;;;;;;;2.10;99.90;;;;;;4989605;28;20289;-82
2022/04/01 06:30:05;;;;;;;;;;;2.20;99.90;;;;;;5006902;28;19937;-81
2022/04/01 06:32:45;;;;;;;;;;;1.30;99.90;;;;;;5007402;28;19932;-79
2022/04/01 06:35:20;;;;;;;;;;;1.80;99.90;;;;;;5004961;28;19937;-81
2022/04/01 06:38:07;;;;;;;;;;;2.20;99.90;;;;;;5004210;28;19929;-80
2022/04/01 06:40:46;;;;;;;;;;;2.30;99.90;;;;;;4994001;28;20421;-81
2022/04/01 06:43:18;;;;;;;;;;;2.20;99.90;;;;;;4986081;28;19926;-80
2022/04/01 06:46:08;;;;;;;;;;;2.40;99.90;;;;;;4997825;28;19929;-81
2022/04/01 06:48:41;;;;;;;;;;;2.30;99.90;;;;;;4987248;28;19925;-81
2022/04/01 06:51:29;;;;;;;;;;;2.30;99.90;;;;;;4986048;28;19930;-81
2022/04/01 06:54:19;;;;;;;;;;;2.30;99.90;;;;;;5001194;28;20369;-82
2022/04/01 06:57:06;;;;;;;;;;;2.20;99.90;;;;;;5007579;28;21274;-82
2022/04/01 06:59:54;;;;;;;;;;;2.20;99.90;;;;;;5014150;28;19926;-85
2022/04/01 07:02:22;;;;;;;;;;;2.70;99.90;;;;;;5002871;28;20510;-82
2022/04/01 07:04:51;;;;;;;;;;;2.30;99.90;;;;;;5003348;28;19938;-82
2022/04/01 07:07:19;;;;;;;;;;;2.20;99.90;;;;;;4955697;28;19957;-84
2022/04/01 07:09:47;;;;;;;;;;;2.20;99.90;;;;;;4985521;28;19930;-83
2022/04/01 07:12:18;;;;;;;;;;;2.20;99.90;;;;;;5008440;28;19926;-85
2022/04/01 07:15:02;;;;;;;;;;;3.50;99.90;;;;;;4992391;28;19941;-84
2022/04/01 07:17:51;;;;;;;;;;;2.50;99.90;;;;;;5009125;28;19930;-83
2022/04/01 07:20:21;;;;;;;;;;;2.20;99.90;;;;;;4974170;28;19926;-84
2022/04/01 07:22:53;;;;;;;;;;;3.00;99.90;;;;;;4974764;28;19926;-85
2022/04/01 07:25:31;;;;;;;;;;;3.20;99.90;;;;;;4973891;28;19927;-85
2022/04/01 07:28:04;;;;;;;;;;;3.20;99.90;;;;;;4971659;28;19930;-83
2022/04/01 07:30:32;;;;;;;;;;;3.00;99.90;;;;;;4981330;28;19936;-84
2022/04/01 07:33:03;;;;;;;;;;;2.70;99.90;;;;;;5006593;28;19926;-85
2022/04/01 07:35:34;;;;;;;;;;;2.90;99.90;;;;;;4991169;28;19929;-85
2022/04/01 07:38:04;;;;;;;;;;;2.80;99.90;;;;;;5007164;28;19940;-87
2022/04/01 07:40:32;;;;;;;;;;;2.90;99.90;;;;;;5009058;28;19930;-81
2022/04/01 07:43:03;;;;;;;;;;;3.20;99.90;;;;;;5004963;28;19940;-84
2022/04/01 07:45:34;;;;;;;;;;;3.10;99.90;;;;;;5014918;28;19925;-83
2022/04/01 07:48:04;;;;;;;;;;;4.20;99.90;;;;;;4992007;28;19960;-84
2022/04/01 07:50:32;;;;;;;;;;;3.20;99.90;;;;;;5007787;28;20405;-81
2022/04/01 07:53:03;;;;;;;;;;;3.30;99.90;;;;;;5007734;28;19930;-83
2022/04/01 07:55:31;;;;;;;;;;;2.80;99.90;;;;;;5021563;28;19926;-85
2022/04/01 07:58:00;;;;;;;;;;;3.70;99.90;;;;;;4988829;28;19930;-85
2022/04/01 08:00:49;;;;;;;;;;;1.80;99.90;;;;;;4968906;28;20134;-83
2022/04/01 08:03:16;;;;;;;;;;;2.70;99.90;;;;;;4977296;28;19930;-84
2022/04/01 08:05:45;;;;;;;;;;;3.70;99.90;;;;;;4987678;28;19940;-87
2022/04/01 08:08:13;;;;;;;;;;;3.70;99.90;;;;;;5002666;28;19925;-83
2022/04/01 08:10:44;;;;;;;;;;;3.80;99.90;;;;;;5004395;28;20262;-85
2022/04/01 08:13:12;;;;;;;;;;;3.90;99.90;;;;;;4987305;28;19941;-83
2022/04/01 08:15:40;;;;;;;;;;;4.00;99.90;;;;;;4972293;28;19933;-83
2022/04/01 08:18:09;;;;;;;;;;;4.30;99.90;;;;;;4980044;28;19930;-83
2022/04/01 08:20:36;;;;;;;;;;;4.70;99.90;;;;;;4987132;28;19929;-81
2022/04/01 08:23:05;;;;;;;;;;;4.20;99.90;;;;;;5003444;28;20426;-84
2022/04/01 08:25:34;;;;;;;;;;;4.20;99.90;;;;;;4977929;28;19945;-84
2022/04/01 08:28:05;;;;;;;;;;;4.20;99.90;;;;;;5001653;28;19934;-83
2022/04/01 08:30:35;;;;;;;;;;;4.20;99.90;;;;;;5000009;28;19945;-86
2022/04/01 08:33:07;;;;;;;;;;;4.10;99.90;;;;;;4984427;28;19930;-83
2022/04/01 08:35:37;;;;;;;;;;;4.10;99.90;;;;;;4969591;28;19934;-83
2022/04/01 08:38:04;;;;;;;;;;;4.10;99.90;;;;;;4986159;28;19934;-83
2022/04/01 08:40:33;;;;;;;;;;;4.10;99.90;;;;;;4982871;28;19941;-83
2022/04/01 08:43:02;;;;;;;;;;;4.20;99.90;;;;;;4985396;28;19926;-84
2022/04/01 08:45:33;;;;;;;;;;;4.20;99.90;;;;;;5006583;28;20114;-84
2022/04/01 08:48:04;;;;;;;;;;;3.20;99.90;;;;;;4974430;28;19945;-80
2022/04/01 08:50:33;;;;;;;;;;;4.40;99.90;;;;;;4986637;28;19930;-82
2022/04/01 08:53:03;;;;;;;;;;;4.50;99.90;;;;;;4988698;28;19926;-82
2022/04/01 08:55:32;;;;;;;;;;;3.80;99.90;;;;;;5006553;28;20144;-83
2022/04/01 08:58:01;;;;;;;;;;;4.70;99.90;;;;;;4985298;28;20272;-83
2022/04/01 09:00:29;;;;;;;;;;;4.70;99.90;;;;;;4988545;28;19930;-84
2022/04/01 09:03:02;;;;;;;;;;;3.50;99.90;;;;;;4990072;28;19925;-82
2022/04/01 09:05:32;;;;;;;;;;;4.90;99.90;;;;;;5000378;28;19933;-86
2022/04/01 09:08:01;;;;;;;;;;;5.10;99.90;;;;;;5005778;28;19936;-84
2022/04/01 09:10:30;;;;;;;;;;;5.00;99.90;;;;;;4969610;28;19936;-86
2022/04/01 09:12:58;;;;;;;;;;;5.10;99.90;;;;;;4986979;28;19934;-81
2022/04/01 09:15:53;;;;;;;;;;;5.20;99.90;;;;;;4985964;28;19936;-82
2022/04/01 09:18:54;;;;;;;;;;;5.30;99.90;;;;;;4983563;28;19933;-83
2022/04/01 09:21:32;;;;;;;;;;;4.20;99.90;;;;;;4962737;28;19940;-82
2022/04/01 09:24:01;;;;;;;;;;;5.50;99.90;;;;;;4984584;28;19929;-82
2022/04/01 09:26:31;;;;;;;;;;;5.60;99.90;;;;;;4986767;28;20021;-83
2022/04/01 09:29:00;;;;;;;;;;;5.60;99.40;;;;;;4983696;28;19932;-85
2022/04/01 09:31:32;;;;;;;;;;;5.60;99.10;;;;;;4984745;28;20002;-83
2022/04/01 09:34:12;;;;;;;;;;;4.60;98.30;;;;;;5001645;28;19926;-84
2022/04/01 09:36:42;;;;;;;;;;;5.80;99.00;;;;;;4984973;28;19926;-82
2022/04/01 09:39:11;;;;;;;;;;;5.90;98.70;;;;;;5002469;28;19926;-85
2022/04/01 09:41:52;;;;;;;;;;;6.20;98.70;;;;;;4974450;28;19932;-85
2022/04/01 09:44:27;;;;;;;;;;;5.40;97.00;;;;;;4982871;28;19934;-83
2022/04/01 09:47:00;;;;;;;;;;;6.20;97.60;;;;;;4968621;28;19940;-84
2022/04/01 09:49:28;;;;;;;;;;;6.40;97.70;;;;;;4984874;28;19930;-84
2022/04/01 09:52:03;;;;;;;;;;;6.50;97.80;;;;;;5002998;28;20349;-85
2022/04/01 09:54:31;;;;;;;;;;;6.50;97.30;;;;;;4984190;28;20298;-86
2022/04/01 09:56:59;;;;;;;;;;;6.60;97.30;;;;;;4984420;28;19937;-84
2022/04/01 09:59:33;;;;;;;;;;;6.70;97.10;;;;;;4980783;28;20113;-84
2022/04/01 10:02:01;;;;;;;;;;;6.80;96.70;;;;;;5001419;28;20647;-83
2022/04/01 10:04:34;;;;;;;;;;;6.70;95.70;;;;;;5003759;28;19929;-84
2022/04/01 10:07:03;;;;;;;;;;;6.60;96.30;;;;;;4968149;28;19930;-83
2022/04/01 10:09:31;;;;;;;;;;;7.40;96.00;;;;;;4985337;28;19945;-81
2022/04/01 10:12:19;;;;;;;;;;;6.50;96.10;;;;;;4982904;28;20022;-82
2022/04/01 10:14:48;;;;;;;;;;;6.50;95.80;;;;;;4986324;28;19934;-83
2022/04/01 10:17:29;;;;;;;;;;;6.80;95.50;;;;;;4954119;28;19934;-82
2022/04/01 10:19:59;;;;;;;;;;;7.00;95.10;;;;;;4968183;28;20490;-84
2022/04/01 10:22:27;;;;;;;;;;;6.90;94.60;;;;;;4986654;28;19934;-82
2022/04/01 10:25:08;;;;;;;;;;;7.00;95.00;;;;;;4982875;28;19926;-83
2022/04/01 10:27:40;;;;;;;;;;;7.00;94.40;;;;;;4967632;28;19926;-84
2022/04/01 10:30:09;;;;;;;;;;;7.00;95.60;;;;;;4966047;28;19930;-82
2022/04/01 10:32:39;;;;;;;;;;;6.40;96.70;;;;;;4964047;28;19926;-82
2022/04/01 10:35:08;;;;;;;;;;;6.30;96.60;;;;;;4983726;28;20408;-82
2022/04/01 10:37:37;;;;;;;;;;;6.10;97.00;;;;;;4964623;28;19926;-83
2022/04/01 10:40:06;;;;;;;;;;;6.30;98.60;;;;;;4983514;28;19934;-85
2022/04/01 10:42:35;;;;;;;;;;;6.40;98.60;;;;;;4966595;28;19930;-81
2022/04/01 10:45:20;;;;;;;;;;;6.20;98.80;;;;;;4947325;28;19930;-81
2022/04/01 10:53:41;;;;;;;;;;;6.60;98.60;;;;;;4966261;28;19926;-82
2022/04/01 10:56:23;;;;;;;;;;;6.80;98.20;;;;;;4970435;28;19934;-83
2022/04/01 10:59:09;;;;;;;;;;;6.90;97.90;;;;;;4968863;28;19926;-83
2022/04/01 11:02:00;;;;;;;;;;;7.00;97.20;;;;;;4985023;28;19937;-83
2022/04/01 11:04:47;;;;;;;;;;;7.30;96.80;;;;;;4964273;28;19926;-82
2022/04/01 11:07:21;;;;;;;;;;;7.40;94.90;;;;;;4967676;28;19930;-83
2022/04/01 11:09:56;;;;;;;;;;;7.60;94.10;;;;;;4981204;28;19934;-86
2022/04/01 11:12:29;;;;;;;;;;;7.90;93.10;;;;;;4966519;28;19944;-85
2022/04/01 11:15:07;;;;;;;;;;;7.90;93.70;;;;;;4956957;28;19930;-84
2022/04/01 11:17:36;;;;;;;;;;;8.30;92.30;;;;;;4959988;28;19930;-81
2022/04/01 11:20:08;;;;;;;;;;;8.60;90.80;;;;;;4996931;28;19929;-85
2022/04/01 11:22:40;;;;;;;;;;;8.90;88.00;;;;;;4967690;28;20191;-85
2022/04/01 11:25:13;;;;;;;;;;;8.80;87.50;;;;;;4995804;28;19926;-83
2022/04/01 11:27:52;;;;;;;;;;;8.80;85.20;;;;;;4998739;28;19926;-85
2022/04/01 11:30:24;;;;;;;;;;;8.80;81.60;;;;;;4996872;28;19933;-84
2022/04/01 11:32:56;;;;;;;;;;;9.00;75.60;;;;;;4965728;28;19936;-85
2022/04/01 11:35:32;;;;;;;;;;;8.80;74.80;;;;;;5001057;28;19926;-84
2022/04/01 11:38:02;;;;;;;;;;;8.80;75.80;;;;;;4982759;28;19926;-81
2022/04/01 11:40:31;;;;;;;;;;;9.10;74.70;;;;;;4997892;28;20199;-83
2022/04/01 11:43:05;;;;;;;;;;;9.10;74.10;;;;;;4999556;28;19930;-83
2022/04/01 11:45:36;;;;;;;;;;;9.20;73.90;;;;;;4997974;28;19930;-81
2022/04/01 11:48:15;;;;;;;;;;;9.40;72.80;;;;;;4980604;28;19934;-82
2022/04/01 11:50:44;;;;;;;;;;;9.60;72.00;;;;;;4983742;28;19936;-83
2022/04/01 11:53:19;;;;;;;;;;;9.50;71.90;;;;;;4965710;28;19929;-82
2022/04/01 11:55:51;;;;;;;;;;;9.40;72.70;;;;;;4998567;28;19930;-84
2022/04/01 11:58:20;;;;;;;;;;;9.30;73.40;;;;;;4983560;28;19945;-85
2022/04/01 12:00:48;;;;;;;;;;;10.90;73.30;;;;;;4968828;28;19930;-87
2022/04/01 12:03:18;;;;;;;;;;;9.30;73.30;;;;;;4969415;28;19926;-84
2022/04/01 12:05:50;;;;;;;;;;;9.30;72.20;;;;;;4971731;28;19936;-87
2022/04/01 12:11:07;;;;;;;;;;;7.50;71.00;;;;;;4983778;28;20692;-87
2022/04/01 12:13:40;;;;;;;;;;;10.40;74.00;;;;;;4982207;28;19945;-84
2022/04/01 12:16:09;;;;;;;;;;;8.90;75.70;;;;;;4973429;28;19934;-84
2022/04/01 12:18:43;;;;;;;;;;;8.40;78.50;;;;;;5003831;28;19953;-84
2022/04/01 12:21:15;;;;;;;;;;;8.60;78.60;;;;;;4987299;28;19929;-82
2022/04/01 12:23:45;;;;;;;;;;;8.70;79.60;;;;;;4985982;28;19940;-82
2022/04/01 12:26:13;;;;;;;;;;;8.50;80.10;;;;;;5000137;28;19941;-87
2022/04/01 12:28:43;;;;;;;;;;;8.60;78.60;;;;;;4953486;28;19926;-81
2022/04/01 12:31:21;;;;;;;;;;;8.80;77.50;;;;;;5005799;28;19984;-83
2022/04/01 12:33:49;;;;;;;;;;;8.90;77.70;;;;;;4973982;28;19926;-83
2022/04/01 12:36:31;;;;;;;;;;;8.90;78.50;;;;;;4986248;28;19940;-83
2022/04/01 12:39:04;;;;;;;;;;;8.90;75.70;;;;;;4989518;28;19926;-84
2022/04/01 12:41:32;;;;;;;;;;;9.00;76.10;;;;;;4986892;28;20377;-82
2022/04/01 12:44:10;;;;;;;;;;;9.20;77.10;;;;;;5002400;28;19937;-84
2022/04/01 12:46:37;;;;;;;;;;;9.40;77.00;;;;;;4982610;28;19937;-83
2022/04/01 12:49:08;;;;;;;;;;;9.50;77.90;;;;;;4966021;28;19937;-83
2022/04/01 12:51:37;;;;;;;;;;;8.80;76.20;;;;;;4984308;28;19934;-87
2022/04/01 12:54:06;;;;;;;;;;;9.30;78.10;;;;;;4983271;28;19941;-83
2022/04/01 12:56:35;;;;;;;;;;;9.10;80.20;;;;;;4985831;28;19926;-83
2022/04/01 12:59:13;;;;;;;;;;;8.80;82.90;;;;;;4968311;28;19930;-82
2022/04/01 13:01:42;;;;;;;;;;;8.80;87.60;;;;;;4988770;28;19933;-84
2022/04/01 13:04:17;;;;;;;;;;;8.00;89.20;;;;;;4984792;28;19937;-80
2022/04/01 13:07:04;;;;;;;;;;;7.90;89.70;;;;;;4997114;28;19934;-84
2022/04/01 13:09:41;;;;;;;;;;;8.10;89.70;;;;;;4985515;28;19934;-83
2022/04/01 13:12:10;;;;;;;;;;;8.00;90.10;;;;;;4981801;28;19934;-82
2022/04/01 13:14:38;;;;;;;;;;;7.90;89.70;;;;;;4995567;28;19938;-85
2022/04/01 13:17:10;;;;;;;;;;;8.30;89.80;;;;;;4978326;28;19930;-82
2022/04/01 13:19:40;;;;;;;;;;;8.30;87.80;;;;;;4950972;28;19934;-83
2022/04/01 13:22:08;;;;;;;;;;;8.00;88.70;;;;;;4966601;28;20323;-84
2022/04/01 13:24:43;;;;;;;;;;;7.80;89.00;;;;;;4996998;28;19926;-83
2022/04/01 13:27:12;;;;;;;;;;;6.70;87.60;;;;;;4962436;28;19930;-83
2022/04/01 13:29:40;;;;;;;;;;;6.60;87.20;;;;;;4929875;29;20352;-82
2022/04/01 13:32:11;;;;;;;;;;;7.60;86.90;;;;;;4962925;29;19930;-85
2022/04/01 13:34:40;;;;;;;;;;;7.90;85.50;;;;;;4963096;29;19930;-83
2022/04/01 13:37:15;;;;;;;;;;;8.40;84.50;;;;;;4936038;28;19926;-86
2022/04/01 13:40:05;;;;;;;;;;;8.60;85.20;;;;;;4984198;28;19933;-88
2022/04/01 13:42:48;;;;;;;;;;;9.00;83.20;;;;;;4968515;28;19926;-85
2022/04/01 13:45:52;;;;;;;;;;;;;;;;;;;;;
2022/04/01 13:59:51;;;;;;;;;;;;;;;;;;;;;
2022/04/01 14:03:46;;;;;;;;;;;10.00;81.70;;;;;;4804593;29;19940;-88
2022/04/01 14:07:08;;;;;;;;;;;;;;;;;;;;;
2022/04/01 14:10:11;;;;;;;;;;;9.90;83.90;;;;;;4796202;29;19929;-87
2022/04/01 14:14:13;;;;;;;;;;;;;;;;;;;;;
2022/04/01 14:25:54;;;;;;;;;;;8.00;91.60;;;;;;4818303;29;19978;-85
2022/04/01 14:32:59;;;;;;;;;;;;;;;;;;;;;
2022/04/01 14:36:46;;;;;;;;;;;7.70;92.70;;;;;;4793818;30;20719;-85
2022/04/01 14:39:50;;;;;;;;;;;5.70;94.60;;;;;;4791424;30;20062;-87
2022/04/01 14:42:45;;;;;;;;;;;6.80;96.70;;;;;;4782588;29;19933;-85
2022/04/01 14:46:46;;;;;;;;;;;6.60;98.80;;;;;;4841848;29;19999;-86
2022/04/01 14:50:27;;;;;;;;;;;6.50;98.50;;;;;;4818859;29;19933;-84
2022/04/01 14:52:56;;;;;;;;;;;6.70;98.60;;;;;;4882102;29;19927;-83
2022/04/01 14:55:24;;;;;;;;;;;6.90;97.30;;;;;;4939930;29;19934;-84
2022/04/01 14:57:59;;;;;;;;;;;6.60;98.10;;;;;;4923811;29;19931;-83
2022/04/01 15:00:57;;;;;;;;;;;7.00;97.10;;;;;;4915778;29;19927;-84
2022/04/01 15:04:42;;;;;;;;;;;;;;;;;;;;;
2022/04/01 15:23:32;;;;;;;;;;;11.80;93.00;;;;;;4795449;29;19940;-86
2022/04/01 15:37:45;;;;;;;;;;;11.50;91.00;;;;;;5507686;22;15804295;-86
2022/04/01 16:08:26;;;;;;;;;;;10.70;90.60;;;;;;5926248;24;20042;-87
2022/04/01 16:20:58;;;;;;;;;;;;;;;;;;;;;
2022/04/01 16:40:01;;;;;;;;;;;;;;;;;;;;;
2022/04/01 16:47:08;;;;;;;;;;;14.30;83.50;;;;;;5853013;24;19920;-88
2022/04/01 16:49:54;;;;;;;;;;;;;;;;;;;;;
2022/04/01 17:12:41;;;;;;;;;;;;;;;;;;;;;
2022/04/01 17:17:53;;;;;;;;;;;14.20;69.40;;;;;;5903852;24;19934;-86
2022/04/01 17:20:44;;;;;;;;;;;12.90;69.30;;;;;;5890218;24;19911;-85
2022/04/01 17:24:17;;;;;;;;;;;12.00;70.20;;;;;;5929261;24;19929;-85
2022/04/01 17:27:29;;;;;;;;;;;11.50;72.50;;;;;;5970406;24;19927;-84
2022/04/01 17:30:18;;;;;;;;;;;10.70;74.80;;;;;;6001050;24;19926;-85
2022/04/01 17:37:05;;;;;;;;;;;9.70;77.10;;;;;;5787173;24;19928;-85
2022/04/01 17:40:36;;;;;;;;;;;9.40;76.00;;;;;;5799411;24;19912;-85
2022/04/01 17:44:07;;;;;;;;;;;9.80;74.10;;;;;;6006602;23;19918;-85
2022/04/01 17:47:02;;;;;;;;;;;9.50;72.30;;;;;;6006128;23;19926;-84
2022/04/01 17:49:51;;;;;;;;;;;9.30;74.90;;;;;;6062140;23;19918;-85
2022/04/01 17:55:43;;;;;;;;;;;9.70;82.10;;;;;;6058593;23;19918;-85
2022/04/01 17:58:35;;;;;;;;;;;8.70;82.30;;;;;;6063409;23;19922;-83
2022/04/01 18:01:49;;;;;;;;;;;8.30;84.10;;;;;;6034148;23;19922;-85
2022/04/01 18:04:37;;;;;;;;;;;8.10;83.70;;;;;;6027455;23;19921;-84
2022/04/01 18:08:18;;;;;;;;;;;8.00;85.10;;;;;;6103196;23;19920;-84
2022/04/01 18:11:06;;;;;;;;;;;10.20;87.00;;;;;;6164979;23;19920;-85
2022/04/01 18:14:51;;;;;;;;;;;;;;;;;;;;;